Time;durP1;ratioP1;P1;durP2;ratioP2;P2;SDS_P1;SDS_P2;PMS_P1;PMS_P2;Temp;Humidity;BMP_temperature;BMP_pressure;BME280_temperature;BME280_humidity;BME280_pressure;Samples;Min_cycle;Max_cycle;Signal;HPM_P1;HPM_P2
2021/04/20 00:00:54;;;;;;;59.95;35.17;;;;;;;8.06;100.00;100536.75;5038584;28;20496;-77
2021/04/20 00:03:20;;;;;;;45.72;28.13;;;;;;;8.34;100.00;100531.41;5042507;28;20041;-76
2021/04/20 00:05:47;;;;;;;48.22;29.05;;;;;;;7.51;100.00;100523.31;5044540;28;20390;-76
2021/04/20 00:08:13;;;;;;;58.45;34.38;;;;;;;7.56;100.00;100526.22;5044026;28;20049;-76
2021/04/20 00:10:40;;;;;;;61.17;36.55;;;;;;;7.53;100.00;100525.75;5035815;28;20186;-76
2021/04/20 00:13:06;;;;;;;61.20;34.95;;;;;;;7.84;100.00;100521.94;5033886;28;20045;-77
2021/04/20 00:15:35;;;;;;;53.95;32.10;;;;;;;7.31;100.00;100524.97;5042240;28;20053;-76
2021/04/20 00:18:04;;;;;;;56.13;31.48;;;;;;;7.80;100.00;100518.88;5042081;28;20056;-76
2021/04/20 00:20:30;;;;;;;58.25;36.05;;;;;;;7.34;100.00;100514.03;5041147;28;20119;-77
2021/04/20 00:22:58;;;;;;;62.67;38.97;;;;;;;7.14;100.00;100513.00;5045407;28;20541;-76
2021/04/20 00:25:25;;;;;;;66.30;36.88;;;;;;;6.81;100.00;100508.22;5038115;28;20151;-77
2021/04/20 00:27:51;;;;;;;70.10;39.13;;;;;;;6.73;100.00;100524.97;5051031;28;20091;-76
2021/04/20 00:30:19;;;;;;;76.53;40.58;;;;;;;6.76;100.00;100521.97;5041232;28;20044;-76
2021/04/20 00:32:45;;;;;;;82.85;45.38;;;;;;;6.67;100.00;100523.06;5043892;28;20049;-77
2021/04/20 00:35:12;;;;;;;79.85;46.17;;;;;;;6.86;100.00;100513.75;5044587;28;20052;-77
2021/04/20 00:37:39;;;;;;;81.07;42.45;;;;;;;6.74;100.00;100520.50;5042931;28;20063;-77
2021/04/20 00:40:09;;;;;;;79.40;42.67;;;;;;;6.77;100.00;100523.59;5044927;28;20140;-76
2021/04/20 00:42:48;;;;;;;83.10;42.80;;;;;;;7.13;100.00;100506.09;5035722;28;20056;-76
2021/04/20 00:45:16;;;;;;;77.43;43.03;;;;;;;7.06;100.00;100517.41;5044094;28;20050;-76
2021/04/20 00:47:42;;;;;;;77.72;42.50;;;;;;;6.83;100.00;100517.56;5038933;28;20042;-78
2021/04/20 00:50:11;;;;;;;72.28;41.03;;;;;;;6.79;100.00;100513.66;5046702;28;20053;-76
2021/04/20 00:52:37;;;;;;;73.18;40.45;;;;;;;7.66;100.00;100517.16;5046642;28;20383;-77
2021/04/20 00:55:05;;;;;;;72.57;38.40;;;;;;;7.45;100.00;100512.72;5043359;28;20053;-77
2021/04/20 00:57:32;;;;;;;69.93;38.78;;;;;;;7.34;100.00;100512.19;5049344;28;20049;-77
2021/04/20 00:59:59;;;;;;;70.72;41.13;;;;;;;7.24;100.00;100511.69;5039870;28;20054;-77
2021/04/20 01:02:26;;;;;;;78.57;39.67;;;;;;;6.89;100.00;100514.19;5042752;28;20045;-77
2021/04/20 01:04:52;;;;;;;68.03;38.80;;;;;;;7.47;100.00;100511.47;5046505;28;20060;-75
2021/04/20 01:07:19;;;;;;;70.82;38.10;;;;;;;7.75;100.00;100514.16;5045815;28;20057;-76
2021/04/20 01:09:47;;;;;;;65.43;37.58;;;;;;;7.03;100.00;100507.22;5039997;28;20053;-76
2021/04/20 01:12:14;;;;;;;69.85;42.05;;;;;;;6.89;100.00;100503.63;5044560;28;20061;-76
2021/04/20 01:14:41;;;;;;;73.53;38.70;;;;;;;6.98;100.00;100514.06;5044843;28;20053;-75
2021/04/20 01:17:08;;;;;;;71.38;39.15;;;;;;;7.35;100.00;100505.06;5041938;28;20045;-77
2021/04/20 01:19:35;;;;;;;72.35;38.85;;;;;;;7.45;100.00;100508.22;5046227;28;20053;-76
2021/04/20 01:22:02;;;;;;;69.80;38.92;;;;;;;7.83;100.00;100504.44;5044237;28;20127;-76
2021/04/20 01:24:30;;;;;;;60.33;35.17;;;;;;;7.23;100.00;100504.78;5044610;28;20042;-76
2021/04/20 01:26:58;;;;;;;65.70;34.60;;;;;;;7.59;100.00;100509.16;5044406;28;20045;-77
2021/04/20 01:29:25;;;;;;;69.40;39.05;;;;;;;6.93;100.00;100508.53;5043403;28;20044;-77
2021/04/20 01:31:52;;;;;;;67.28;36.80;;;;;;;7.33;100.00;100510.56;5044793;28;20053;-78
2021/04/20 01:34:19;;;;;;;74.85;41.70;;;;;;;7.53;100.00;100507.25;5044101;28;20045;-76
2021/04/20 01:36:46;;;;;;;64.63;33.92;;;;;;;7.15;100.00;100504.09;5045342;28;20077;-76
2021/04/20 01:39:13;;;;;;;79.88;43.53;;;;;;;7.25;100.00;100513.31;5043540;28;20045;-76
2021/04/20 01:41:42;;;;;;;70.47;41.33;;;;;;;7.45;100.00;100518.81;5047550;28;20118;-76
2021/04/20 01:44:09;;;;;;;73.70;41.58;;;;;;;6.86;100.00;100508.47;5049468;28;20053;-76
2021/04/20 01:46:36;;;;;;;74.68;42.63;;;;;;;7.09;100.00;100519.69;5045626;28;20051;-76
2021/04/20 01:49:02;;;;;;;83.28;42.03;;;;;;;6.97;100.00;100520.38;5044780;28;20045;-78
2021/04/20 01:51:29;;;;;;;78.45;43.03;;;;;;;6.98;100.00;100524.63;5050565;28;20036;-76
2021/04/20 01:53:56;;;;;;;79.53;39.13;;;;;;;6.81;100.00;100522.22;5045232;28;20048;-77
2021/04/20 01:56:22;;;;;;;83.22;42.28;;;;;;;7.43;100.00;100523.44;5044830;28;20391;-76
2021/04/20 01:58:50;;;;;;;74.28;38.55;;;;;;;7.94;100.00;100517.97;5038689;28;20057;-76
2021/04/20 04:40:04;;;;;;;71.63;35.88;;;;;;;6.77;100.00;100658.22;5025019;28;20147;-78
2021/04/20 04:42:30;;;;;;;73.70;41.80;;;;;;;6.87;100.00;100660.59;5039154;28;20049;-76
2021/04/20 04:44:57;;;;;;;70.80;38.78;;;;;;;6.63;100.00;100657.22;5046130;28;20041;-76
2021/04/20 04:47:24;;;;;;;74.38;40.22;;;;;;;6.41;100.00;100658.94;5040508;28;20045;-76
2021/04/20 04:49:52;;;;;;;81.68;44.25;;;;;;;6.41;100.00;100660.75;5047679;28;20087;-76
2021/04/20 04:52:20;;;;;;;69.95;31.50;;;;;;;7.48;100.00;100662.97;5040357;28;20305;-76
2021/04/20 04:54:46;;;;;;;71.63;37.28;;;;;;;7.15;100.00;100666.03;5044866;28;20049;-76
2021/04/20 04:57:16;;;;;;;76.80;40.88;;;;;;;6.73;100.00;100670.16;5036950;28;20041;-76
2021/04/20 04:59:44;;;;;;;74.95;39.58;;;;;;;6.71;100.00;100673.97;5037312;28;20115;-77
2021/04/20 05:02:12;;;;;;;78.30;39.83;;;;;;;6.58;100.00;100679.88;5040676;28;20045;-77
2021/04/20 05:04:38;;;;;;;80.38;42.25;;;;;;;6.76;100.00;100687.44;5039823;28;20049;-76
2021/04/20 05:07:05;;;;;;;73.88;39.05;;;;;;;6.71;100.00;100687.16;5041764;28;20053;-76
2021/04/20 05:09:31;;;;;;;75.72;39.33;;;;;;;6.48;100.00;100680.16;5040575;28;20045;-77
2021/04/20 05:11:58;;;;;;;83.38;42.90;;;;;;;6.54;100.00;100686.53;5044576;28;20037;-76
2021/04/20 05:14:25;;;;;;;93.13;44.47;;;;;;;6.50;100.00;100683.41;5046855;28;20131;-76
2021/04/20 05:16:53;;;;;;;95.43;51.95;;;;;;;6.74;100.00;100689.44;5038848;28;20460;-76
2021/04/20 05:19:26;;;;;;;84.38;43.30;;;;;;;6.55;100.00;100686.34;5045099;28;20111;-77
2021/04/20 05:21:53;;;;;;;82.93;42.00;;;;;;;6.52;100.00;100689.34;5043702;28;20049;-76
2021/04/20 05:24:20;;;;;;;87.85;43.55;;;;;;;6.62;100.00;100689.06;5043075;28;20508;-76
2021/04/20 05:26:46;;;;;;;81.53;41.55;;;;;;;6.93;100.00;100693.34;5043218;28;20124;-77
2021/04/20 05:29:13;;;;;;;78.75;39.60;;;;;;;7.20;100.00;100703.28;5042785;28;20683;-77
2021/04/20 05:31:40;;;;;;;75.10;39.75;;;;;;;6.80;100.00;100694.00;5043167;28;20053;-76
2021/04/20 05:34:07;;;;;;;75.03;39.35;;;;;;;6.95;100.00;100697.47;5041850;28;20467;-76
2021/04/20 05:36:34;;;;;;;80.47;43.38;;;;;;;7.00;100.00;100704.84;5042812;28;20390;-77
2021/04/20 05:39:03;;;;;;;69.05;38.53;;;;;;;6.97;100.00;100703.38;5047766;28;20464;-76
2021/04/20 05:41:32;;;;;;;76.80;42.72;;;;;;;6.87;100.00;100700.22;5043152;28;20041;-76
2021/04/20 05:44:00;;;;;;;78.75;41.75;;;;;;;7.21;100.00;100704.91;5045165;28;20490;-76
2021/04/20 05:46:27;;;;;;;60.35;30.15;;;;;;;7.89;100.00;100704.66;5045553;28;20453;-76
2021/04/20 05:48:56;;;;;;;72.15;41.65;;;;;;;6.87;100.00;100705.50;5045582;28;20049;-76
2021/04/20 05:51:24;;;;;;;75.25;35.70;;;;;;;7.37;100.00;100711.00;5048928;28;20053;-78
2021/04/20 05:53:53;;;;;;;75.93;38.65;;;;;;;7.31;100.00;100701.97;5050652;28;20428;-76
2021/04/20 05:56:21;;;;;;;69.10;39.88;;;;;;;7.35;100.00;100703.25;5047201;28;20049;-76
2021/04/20 05:58:51;;;;;;;58.75;32.42;;;;;;;7.65;100.00;100711.09;5048022;28;20053;-76
2021/04/20 06:01:18;;;;;;;70.47;38.65;;;;;;;7.45;100.00;100705.63;5045654;28;20041;-78
2021/04/20 06:03:47;;;;;;;65.32;38.25;;;;;;;7.71;100.00;100708.53;5047344;28;20045;-76
2021/04/20 06:06:15;;;;;;;67.97;36.42;;;;;;;7.89;100.00;100707.28;5047427;28;20142;-76
2021/04/20 06:08:43;;;;;;;66.13;38.00;;;;;;;7.26;100.00;100710.47;5050586;28;20148;-76
2021/04/20 06:11:10;;;;;;;71.97;38.53;;;;;;;7.49;100.00;100715.63;5045882;28;20053;-77
2021/04/20 06:13:37;;;;;;;70.47;38.25;;;;;;;7.71;100.00;100713.81;5048301;28;20060;-78
2021/04/20 06:16:04;;;;;;;67.90;36.80;;;;;;;7.80;100.00;100715.34;5045136;28;20485;-77
2021/04/20 06:18:31;;;;;;;62.38;38.53;;;;;;;7.70;100.00;100721.97;5048410;28;20049;-77
2021/04/20 06:21:00;;;;;;;68.18;38.80;;;;;;;7.77;100.00;100712.25;5048129;28;20106;-78
2021/04/20 06:23:28;;;;;;;61.28;33.85;;;;;;;8.59;100.00;100713.63;5048544;28;20470;-76
2021/04/20 06:25:57;;;;;;;58.42;35.63;;;;;;;8.54;100.00;100711.56;5048791;28;20049;-77
2021/04/20 06:28:24;;;;;;;55.35;35.70;;;;;;;7.94;100.00;100712.84;5047066;28;20060;-77
2021/04/20 06:30:51;;;;;;;59.58;35.70;;;;;;;7.63;100.00;100715.78;5043524;28;20037;-78
2021/04/20 06:33:19;;;;;;;62.80;36.60;;;;;;;7.69;100.00;100733.53;5044782;28;20122;-77
2021/04/20 06:35:46;;;;;;;59.17;33.75;;;;;;;7.82;100.00;100714.34;5046941;28;20473;-77
2021/04/20 06:38:13;;;;;;;57.08;33.67;;;;;;;7.41;100.00;100717.53;5044938;28;20064;-78
2021/04/20 06:40:45;;;;;;;66.22;34.95;;;;;;;7.94;100.00;100723.44;5044382;28;20056;-77
2021/04/20 06:43:13;;;;;;;55.15;34.10;;;;;;;9.42;100.00;100719.81;5044842;28;20045;-78
2021/04/20 06:45:46;;;;;;;48.45;33.35;;;;;;;8.99;100.00;100713.91;5043243;28;20059;-78
2021/04/20 06:48:23;;;;;;;50.83;33.28;;;;;;;8.13;100.00;100714.84;5039825;28;20049;-77
2021/04/20 06:50:55;;;;;;;60.22;35.33;;;;;;;8.23;100.00;100712.72;5047442;28;20132;-76
2021/04/20 06:53:26;;;;;;;54.65;34.80;;;;;;;7.68;100.00;100714.19;5041897;28;21275;-77
2021/04/20 06:56:07;;;;;;;69.10;36.97;;;;;;;7.69;100.00;100717.69;5047148;28;20146;-77
2021/04/20 06:58:47;;;;;;;55.75;34.35;;;;;;;7.62;100.00;100716.78;5052323;28;20091;-76
2021/04/20 07:01:17;;;;;;;59.25;34.72;;;;;;;7.96;100.00;100726.72;5054401;28;20135;-76
2021/04/20 07:03:58;;;;;;;62.78;37.55;;;;;;;7.84;100.00;100728.19;5045086;28;20041;-77
2021/04/20 07:06:31;;;;;;;52.03;33.42;;;;;;;7.87;100.00;100726.00;5046445;28;20065;-76
2021/04/20 07:09:01;;;;;;;57.50;34.40;;;;;;;7.82;100.00;100733.69;5045124;28;20366;-76
2021/04/20 07:11:31;;;;;;;58.10;34.17;;;;;;;7.80;100.00;100736.50;5043468;28;20045;-77
2021/04/20 07:13:59;;;;;;;61.45;35.97;;;;;;;8.43;100.00;100742.00;5045540;28;20049;-76
2021/04/20 07:16:37;;;;;;;52.70;33.45;;;;;;;8.05;100.00;100733.53;5045531;28;20040;-76
2021/04/20 07:19:29;;;;;;;50.85;29.38;;;;;;;8.52;100.00;100744.53;5037739;28;20052;-77
2021/04/20 07:22:08;;;;;;;53.13;32.00;;;;;;;8.62;100.00;100745.84;5037309;28;20054;-76
2021/04/20 07:24:48;;;;;;;45.90;30.60;;;;;;;8.39;100.00;100737.31;5044907;28;20490;-77
2021/04/20 07:27:28;;;;;;;44.75;30.75;;;;;;;8.37;100.00;100745.41;5045321;28;20048;-77
2021/04/20 07:30:09;;;;;;;48.40;31.95;;;;;;;8.49;100.00;100749.19;5043642;28;20044;-78
2021/04/20 07:32:53;;;;;;;46.60;29.63;;;;;;;8.27;100.00;100742.25;5044136;28;20480;-77
2021/04/20 07:35:24;;;;;;;45.65;32.22;;;;;;;7.97;100.00;100760.91;5046151;28;20045;-76
2021/04/20 07:37:55;;;;;;;48.95;32.28;;;;;;;7.78;100.00;100758.88;5044328;28;20053;-77
2021/04/20 07:40:40;;;;;;;53.78;34.28;;;;;;;7.93;100.00;100759.63;5033731;28;20068;-76
2021/04/20 07:43:17;;;;;;;51.13;31.52;;;;;;;7.89;100.00;100770.75;5046002;28;20084;-77
2021/04/20 07:45:51;;;;;;;42.75;29.98;;;;;;;7.78;100.00;100766.78;5049142;28;20052;-78
2021/04/20 07:48:27;;;;;;;50.33;31.27;;;;;;;7.76;100.00;100763.50;5046965;28;20053;-77
2021/04/20 07:50:56;;;;;;;52.38;31.90;;;;;;;8.04;100.00;100775.00;5043328;28;20160;-79
2021/04/20 07:53:30;;;;;;;49.90;32.13;;;;;;;7.94;100.00;100774.50;5041362;28;20139;-75
2021/04/20 07:56:02;;;;;;;44.95;29.75;;;;;;;7.92;100.00;100775.69;5037448;28;20044;-76
2021/04/20 07:58:33;;;;;;;;;;;;;;;8.18;100.00;100768.03;5043222;28;20088;-76
2021/04/20 08:01:07;;;;;;;43.33;28.08;;;;;;;8.20;100.00;100776.59;5039671;28;19930;-77
2021/04/20 08:03:50;;;;;;;42.22;28.17;;;;;;;8.16;100.00;100777.16;5040125;28;20487;-77
2021/04/20 08:06:21;;;;;;;61.65;34.45;;;;;;;8.79;100.00;100772.03;5040876;28;20134;-73
2021/04/20 08:08:50;;;;;;;43.03;29.95;;;;;;;10.11;100.00;100765.72;5040814;28;20277;-76
2021/04/20 08:11:23;;;;;;;34.97;29.77;;;;;;;8.96;100.00;100770.75;5042117;28;20053;-74
2021/04/20 08:13:57;;;;;;;38.78;28.50;;;;;;;8.20;100.00;100771.31;5039537;28;20059;-74
2021/04/20 08:16:27;;;;;;;45.88;29.02;;;;;;;8.23;100.00;100770.13;5040229;28;20060;-76
2021/04/20 08:18:59;;;;;;;43.13;29.88;;;;;;;8.29;100.00;100773.81;5041821;28;20450;-75
2021/04/20 08:21:27;;;;;;;45.67;29.05;;;;;;;8.04;100.00;100782.94;5040690;28;20060;-76
2021/04/20 08:23:55;;;;;;;43.17;28.05;;;;;;;8.06;100.00;100785.41;5040655;28;20053;-74
2021/04/20 08:26:24;;;;;;;42.40;27.90;;;;;;;7.98;100.00;100788.97;5041264;28;20041;-74
2021/04/20 08:28:58;;;;;;;38.28;26.63;;;;;;;8.03;100.00;100796.38;5041920;28;20512;-74
2021/04/20 08:31:33;;;;;;;52.78;31.85;;;;;;;8.02;100.00;100798.19;5040818;28;20815;-75
2021/04/20 08:34:11;;;;;;;39.67;27.80;;;;;;;8.19;100.00;100800.59;5041171;28;20464;-73
2021/04/20 08:36:48;;;;;;;40.88;28.60;;;;;;;8.16;100.00;100803.63;5040941;28;20091;-74
2021/04/20 08:39:20;;;;;;;41.75;29.45;;;;;;;8.14;100.00;100809.09;5036633;28;20363;-75
2021/04/20 08:41:54;;;;;;;41.60;27.30;;;;;;;8.15;100.00;100808.09;5036912;28;20037;-73
2021/04/20 08:44:30;;;;;;;44.50;27.95;;;;;;;8.34;100.00;100803.19;5038464;28;20041;-76
2021/04/20 08:47:03;;;;;;;43.55;27.52;;;;;;;8.29;100.00;100810.84;5039359;28;20540;-76
2021/04/20 08:49:43;;;;;;;40.67;26.27;;;;;;;8.49;100.00;100804.78;5042057;28;20049;-75
2021/04/20 08:52:21;;;;;;;42.08;28.98;;;;;;;8.38;100.00;100807.09;5040407;28;20053;-76
2021/04/20 08:55:05;;;;;;;38.38;26.08;;;;;;;8.47;100.00;100812.13;5041419;28;20049;-75
2021/04/20 08:57:46;;;;;;;38.72;28.80;;;;;;;8.22;100.00;100814.25;5041406;28;20130;-75
2021/04/20 09:00:16;;;;;;;36.08;26.48;;;;;;;8.48;100.00;100811.09;5039946;28;20048;-75
2021/04/20 09:02:57;;;;;;;37.38;27.67;;;;;;;8.38;100.00;100812.38;5040513;28;20049;-76
2021/04/20 09:05:30;;;;;;;39.80;28.58;;;;;;;8.30;100.00;100815.16;5038217;28;20045;-76
2021/04/20 09:07:58;;;;;;;;;;;;;;;8.33;100.00;100812.13;5039732;28;20053;-76
2021/04/20 09:10:31;;;;;;;40.30;27.42;;;;;;;8.33;100.00;100820.09;5043525;28;19974;-76
2021/04/20 09:13:05;;;;;;;38.97;28.40;;;;;;;8.40;100.00;100813.03;5039960;28;20087;-76
2021/04/20 09:15:37;;;;;;;38.03;29.08;;;;;;;8.51;100.00;100817.03;5042707;28;20418;-75
2021/04/20 09:18:06;;;;;;;35.58;28.58;;;;;;;8.30;100.00;100820.47;5036012;28;20115;-74
2021/04/20 09:20:39;;;;;;;42.30;30.80;;;;;;;8.37;100.00;100816.84;5040837;28;20490;-79
2021/04/20 09:23:14;;;;;;;37.08;27.58;;;;;;;8.39;100.00;100814.88;5039086;28;20053;-75
2021/04/20 09:25:51;;;;;;;35.97;31.98;;;;;;;8.39;100.00;100811.41;5038144;28;20088;-75
2021/04/20 09:28:23;;;;;;;34.63;28.15;;;;;;;8.39;100.00;100822.00;5044770;28;20721;-74
2021/04/20 09:30:54;;;;;;;35.78;30.20;;;;;;;8.57;100.00;100816.28;5048035;28;20523;-73
2021/04/20 09:33:32;;;;;;;33.88;26.75;;;;;;;8.95;100.00;100801.69;5043806;28;20049;-82
2021/04/20 09:36:00;;;;;;;35.80;31.70;;;;;;;9.16;100.00;100797.34;5046853;28;20052;-76
2021/04/20 09:38:27;;;;;;;34.92;27.58;;;;;;;8.90;100.00;100808.59;5040495;28;20061;-75
2021/04/20 09:40:55;;;;;;;35.55;27.38;;;;;;;9.03;100.00;100794.63;5042512;28;20455;-75
2021/04/20 09:43:30;;;;;;;29.75;24.80;;;;;;;8.90;100.00;100798.00;5044235;28;20115;-76
2021/04/20 09:46:07;;;;;;;25.40;22.15;;;;;;;8.92;100.00;100796.78;5040195;28;20056;-75
2021/04/20 09:48:43;;;;;;;28.23;25.23;;;;;;;8.83;100.00;100797.13;5034659;28;20135;-76
2021/04/20 09:51:15;;;;;;;27.33;24.52;;;;;;;8.95;100.00;100796.38;5043420;28;20049;-76
2021/04/20 09:53:56;;;;;;;27.60;24.90;;;;;;;8.85;100.00;100800.41;5045716;28;20061;-75
2021/04/20 09:56:29;;;;;;;29.40;26.60;;;;;;;9.23;100.00;100800.88;5044172;28;20150;-76
2021/04/20 09:58:56;;;;;;;26.65;23.83;;;;;;;9.15;100.00;100803.66;5040194;28;20057;-76
2021/04/20 10:01:47;;;;;;;27.15;24.48;;;;;;;9.43;100.00;100806.25;5042538;28;20372;-76
2021/04/20 10:04:25;;;;;;;27.50;24.70;;;;;;;9.42;100.00;100799.34;5042080;28;20053;-75
2021/04/20 10:07:22;;;;;;;29.02;26.33;;;;;;;9.36;100.00;100802.78;5033427;28;20096;-77
2021/04/20 10:10:00;;;;;;;28.55;25.95;;;;;;;9.43;100.00;100800.97;5043821;28;20076;-80
2021/04/20 10:13:02;;;;;;;29.08;26.35;;;;;;;9.66;100.00;100798.03;5042211;28;20072;-79
2021/04/20 10:15:37;;;;;;;27.00;24.65;;;;;;;9.47;100.00;100794.28;5039698;28;20080;-76
2021/04/20 10:18:11;;;;;;;27.50;25.05;;;;;;;9.69;100.00;100794.97;5041708;28;20127;-76
2021/04/20 10:20:46;;;;;;;29.67;27.15;;;;;;;9.69;100.00;100789.66;5042657;28;20068;-75
2021/04/20 10:23:21;;;;;;;30.00;27.40;;;;;;;9.93;100.00;100787.50;5042308;28;20061;-76
2021/04/20 10:25:50;;;;;;;31.65;29.10;;;;;;;9.93;100.00;100784.88;5042345;28;20103;-77
2021/04/20 10:28:24;;;;;;;29.75;27.25;;;;;;;10.02;100.00;100786.31;5042786;28;20095;-78
2021/04/20 10:30:54;;;;;;;32.05;29.40;;;;;;;10.15;100.00;100789.00;5040649;28;20128;-78
2021/04/20 10:33:24;;;;;;;29.17;26.77;;;;;;;9.73;100.00;100787.44;5043304;28;20048;-77
2021/04/20 10:35:55;;;;;;;28.48;25.83;;;;;;;9.89;100.00;100792.38;5043498;28;20485;-75
2021/04/20 10:38:23;;;;;;;29.45;26.65;;;;;;;9.90;100.00;100790.56;5040440;28;20483;-75
2021/04/20 10:40:54;;;;;;;26.98;24.58;;;;;;;10.00;100.00;100797.13;5040569;28;20049;-76
2021/04/20 10:43:22;;;;;;;28.45;25.83;;;;;;;10.05;100.00;100788.56;5042814;28;20110;-78
2021/04/20 10:45:50;;;;;;;26.85;24.55;;;;;;;9.90;100.00;100788.72;5040229;28;20466;-78
2021/04/20 10:48:22;;;;;;;27.83;25.38;;;;;;;10.14;100.00;100792.66;5043368;28;20444;-78
2021/04/20 10:50:52;;;;;;;27.98;25.58;;;;;;;10.46;100.00;100785.78;5043663;28;20512;-77
2021/04/20 10:53:24;;;;;;;28.02;25.58;;;;;;;10.53;100.00;100791.13;5032097;28;20042;-76
2021/04/20 10:55:53;;;;;;;;;;;;;;;10.96;100.00;100785.38;5044293;28;20129;-76
2021/04/20 10:58:22;;;;;;;27.40;24.98;;;;;;;10.94;100.00;100782.09;5041467;28;19935;-76
2021/04/20 11:00:51;;;;;;;28.30;25.92;;;;;;;10.86;100.00;100779.66;5043943;28;20095;-76
2021/04/20 11:03:22;;;;;;;30.70;27.92;;;;;;;11.13;100.00;100775.13;5041231;28;20467;-75
2021/04/20 11:05:50;;;;;;;26.80;24.67;;;;;;;11.03;100.00;100782.72;5042475;28;20103;-77
2021/04/20 11:08:23;;;;;;;26.27;23.88;;;;;;;11.29;100.00;100781.84;5041612;28;20049;-76
2021/04/20 11:10:50;;;;;;;28.00;25.63;;;;;;;11.44;100.00;100783.22;5042804;28;20072;-76
2021/04/20 11:13:16;;;;;;;27.63;25.40;;;;;;;11.61;100.00;100780.06;5042454;28;20550;-76
2021/04/20 11:15:43;;;;;;;28.85;26.45;;;;;;;11.48;100.00;100772.97;5043641;28;20054;-76
2021/04/20 11:18:13;;;;;;;28.45;26.10;;;;;;;11.88;100.00;100778.94;5042922;28;20505;-78
2021/04/20 11:20:41;;;;;;;30.02;27.63;;;;;;;11.86;100.00;100781.03;5043296;28;20049;-76
2021/04/20 11:23:25;;;;;;;29.38;27.15;;;;;;;12.10;100.00;100771.47;5044449;28;20048;-76
2021/04/20 11:26:02;;;;;;;27.75;25.52;;;;;;;12.25;100.00;100775.66;5041422;28;20044;-76
2021/04/20 11:28:35;;;;;;;27.27;25.20;;;;;;;12.46;100.00;100761.97;5040785;28;20056;-77
2021/04/20 11:31:02;;;;;;;;;;;;;;;11.98;100.00;100761.72;5020082;28;20064;-76
2021/04/20 11:33:35;;;;;;;31.33;28.83;;;;;;;11.70;100.00;100770.81;5016756;28;19939;-75
2021/04/20 11:36:06;;;;;;;31.60;29.08;;;;;;;12.06;100.00;100769.44;5040965;28;20110;-76
2021/04/20 11:38:42;;;;;;;29.63;27.33;;;;;;;11.83;100.00;100781.44;5046252;28;20049;-78
2021/04/20 11:41:11;;;;;;;29.73;27.42;;;;;;;11.87;100.00;100773.88;5045342;28;20045;-78
2021/04/20 11:43:40;;;;;;;30.90;28.70;;;;;;;11.52;100.00;100760.88;5042810;28;20056;-78
2021/04/20 11:46:08;;;;;;;29.33;27.13;;;;;;;12.05;100.00;100763.31;5045914;28;20048;-78
2021/04/20 11:48:36;;;;;;;30.80;28.48;;;;;;;12.38;100.00;100760.41;5043779;28;20049;-78
2021/04/20 11:51:05;;;;;;;30.83;28.42;;;;;;;12.39;100.00;100753.25;5041547;28;20048;-77
2021/04/20 11:53:39;;;;;;;30.80;28.58;;;;;;;13.45;100.00;100756.75;5043719;28;20501;-78
2021/04/20 11:56:07;;;;;;;31.25;28.75;;;;;;;12.69;100.00;100734.75;5045839;28;20474;-76
2021/04/20 11:58:38;;;;;;;28.90;26.75;;;;;;;12.68;100.00;100740.28;5038189;28;20136;-78
2021/04/20 12:01:13;;;;;;;31.50;29.02;;;;;;;12.66;100.00;100739.72;5047628;28;20055;-78
2021/04/20 12:03:54;;;;;;;30.63;28.25;;;;;;;13.30;100.00;100743.78;5039306;28;20087;-77
2021/04/20 12:06:21;;;;;;;30.90;28.45;;;;;;;12.71;100.00;100743.34;5040301;28;20533;-77
2021/04/20 12:08:54;;;;;;;29.80;27.58;;;;;;;13.14;100.00;100733.69;5046033;28;20400;-78
2021/04/20 12:11:25;;;;;;;32.45;30.20;;;;;;;13.40;100.00;100735.25;5049042;28;20076;-77
2021/04/20 12:13:52;;;;;;;29.83;27.83;;;;;;;13.46;100.00;100732.53;5047935;28;20084;-77
2021/04/20 12:16:19;;;;;;;30.88;28.67;;;;;;;14.48;100.00;100730.84;5046788;28;20471;-77
2021/04/20 12:18:47;;;;;;;30.17;28.10;;;;;;;13.83;100.00;100723.59;5046108;28;20047;-78
2021/04/20 12:21:22;;;;;;;31.10;28.80;;;;;;;13.38;100.00;100718.69;5046161;28;20045;-78
2021/04/20 12:23:51;;;;;;;30.00;27.90;;;;;;;13.46;100.00;100713.00;5045880;28;20048;-78
2021/04/20 12:26:19;;;;;;;31.85;29.45;;;;;;;13.26;100.00;100719.41;5047255;28;20047;-76
2021/04/20 12:28:50;;;;;;;31.08;29.00;;;;;;;13.44;100.00;100715.09;5047341;28;20040;-78
2021/04/20 12:31:17;;;;;;;30.48;28.38;;;;;;;13.22;100.00;100712.03;5043951;28;20410;-78
2021/04/20 12:33:46;;;;;;;31.23;28.98;;;;;;;13.59;100.00;100715.53;5036414;28;20053;-79
2021/04/20 12:36:26;;;;;;;31.95;29.65;;;;;;;13.62;100.00;100706.25;5037309;28;20072;-78
2021/04/20 12:38:56;;;;;;;30.85;28.75;;;;;;;13.99;100.00;100693.59;5041642;28;20041;-77
2021/04/20 12:41:23;;;;;;;32.85;30.40;;;;;;;14.30;100.00;100695.16;5040034;28;20056;-77
2021/04/20 12:43:55;;;;;;;35.00;32.15;;;;;;;14.32;100.00;100689.59;5044650;28;20610;-77
2021/04/20 12:46:25;;;;;;;31.10;29.05;;;;;;;14.85;100.00;100680.63;5042889;28;20509;-78
2021/04/20 12:48:55;;;;;;;30.05;28.13;;;;;;;15.00;100.00;100686.31;5045208;28;20095;-78
2021/04/20 12:51:24;;;;;;;29.90;27.95;;;;;;;14.32;100.00;100684.25;5045306;28;20367;-78
2021/04/20 12:53:52;;;;;;;28.75;27.05;;;;;;;14.55;100.00;100697.63;5047117;28;20486;-78
2021/04/20 12:56:26;;;;;;;30.13;28.15;;;;;;;14.57;100.00;100674.16;5043447;28;20075;-76
2021/04/20 12:58:56;;;;;;;31.05;29.17;;;;;;;14.61;100.00;100675.34;5042225;28;20049;-77
2021/04/20 13:01:23;;;;;;;30.60;28.80;;;;;;;13.90;100.00;100679.75;5040568;28;20041;-78
2021/04/20 13:03:51;;;;;;;29.60;27.80;;;;;;;13.77;100.00;100685.31;5045478;28;20492;-77
2021/04/20 13:06:18;;;;;;;31.23;29.13;;;;;;;15.02;100.00;100681.53;5047044;28;20480;-78
2021/04/20 13:08:47;;;;;;;32.55;30.40;;;;;;;14.74;100.00;100678.81;5044411;28;20091;-77
2021/04/20 13:11:24;;;;;;;34.28;31.50;;;;;;;14.42;100.00;100676.47;5047723;28;20473;-79
2021/04/20 13:13:53;;;;;;;32.42;30.30;;;;;;;14.79;100.00;100682.38;5047426;28;20059;-77
2021/04/20 13:16:24;;;;;;;33.28;31.10;;;;;;;14.40;100.00;100683.88;5047965;28;20053;-76
2021/04/20 13:18:56;;;;;;;34.38;31.98;;;;;;;13.28;100.00;100673.84;5050360;28;20079;-77
2021/04/20 13:21:24;;;;;;;33.75;31.45;;;;;;;13.77;100.00;100671.97;5049520;28;20088;-76
2021/04/20 13:23:52;;;;;;;33.72;31.63;;;;;;;14.32;100.00;100673.56;5049794;28;20048;-76
2021/04/20 13:26:24;;;;;;;35.15;32.85;;;;;;;14.35;100.00;100667.75;5048758;28;20122;-78
2021/04/20 13:28:54;;;;;;;34.20;31.90;;;;;;;14.28;100.00;100675.88;5043328;28;20049;-79
2021/04/20 13:31:23;;;;;;;33.95;31.65;;;;;;;14.78;100.00;100678.09;5046039;28;20459;-77
2021/04/20 13:33:54;;;;;;;33.45;31.05;;;;;;;14.43;100.00;100678.06;5050200;28;20405;-78
2021/04/20 13:36:22;;;;;;;35.05;32.65;;;;;;;14.23;100.00;100685.63;5045743;28;20480;-77
2021/04/20 13:38:55;;;;;;;35.88;33.08;;;;;;;13.86;100.00;100686.59;5046567;28;20122;-78
2021/04/20 13:41:23;;;;;;;36.10;33.65;;;;;;;14.32;100.00;100677.03;5048378;28;20045;-77
2021/04/20 13:43:52;;;;;;;37.13;34.58;;;;;;;14.76;100.00;100682.03;5046074;28;20057;-77
2021/04/20 13:46:22;;;;;;;36.92;34.22;;;;;;;14.03;100.00;100680.59;5050446;28;20469;-77
2021/04/20 13:48:49;;;;;;;37.35;34.85;;;;;;;15.32;100.00;100678.66;5049380;28;20041;-77
2021/04/20 13:51:26;;;;;;;39.10;36.38;;;;;;;15.26;100.00;100673.47;5047373;28;20450;-76
2021/04/20 13:53:53;;;;;;;36.83;34.25;;;;;;;14.19;100.00;100678.09;5047175;28;20565;-76
2021/04/20 13:56:24;;;;;;;40.35;36.80;;;;;;;13.97;100.00;100679.66;5048768;28;20099;-77
2021/04/20 13:58:57;;;;;;;36.95;34.45;;;;;;;14.41;100.00;100683.66;5046323;28;20052;-76
2021/04/20 14:01:28;;;;;;;37.20;34.60;;;;;;;13.92;100.00;100677.69;5050155;28;20629;-75